sensor_id;sensor_type;location;lat;lon;timestamp;P1;durP1;ratioP1;P2;durP2;ratioP2
50231;SDS011;36118;56.468;84.952;2023-03-29T00:04:00;70.18;;;38.20;;
50231;SDS011;36118;56.468;84.952;2023-03-29T00:09:03;78.00;;;40.92;;
50231;SDS011;36118;56.468;84.952;2023-03-29T00:14:07;78.03;;;49.00;;
50231;SDS011;36118;56.468;84.952;2023-03-29T00:19:10;84.00;;;45.35;;
50231;SDS011;36118;56.468;84.952;2023-03-29T00:24:12;87.10;;;45.40;;
50231;SDS011;36118;56.468;84.952;2023-03-29T00:29:16;78.20;;;46.85;;
50231;SDS011;36118;56.468;84.952;2023-03-29T00:34:19;83.38;;;47.13;;
50231;SDS011;36118;56.468;84.952;2023-03-29T00:39:22;79.03;;;44.65;;
50231;SDS011;36118;56.468;84.952;2023-03-29T00:49:55;80.97;;;42.85;;
50231;SDS011;36118;56.468;84.952;2023-03-29T00:55:05;80.30;;;44.67;;
50231;SDS011;36118;56.468;84.952;2023-03-29T01:00:14;72.38;;;44.25;;
50231;SDS011;36118;56.468;84.952;2023-03-29T01:05:24;71.15;;;39.80;;
50231;SDS011;36118;56.468;84.952;2023-03-29T01:10:50;75.18;;;40.80;;
50231;SDS011;36118;56.468;84.952;2023-03-29T01:16:20;69.90;;;37.25;;
50231;SDS011;36118;56.468;84.952;2023-03-29T01:21:29;69.15;;;39.88;;
50231;SDS011;36118;56.468;84.952;2023-03-29T01:32:01;58.50;;;38.47;;
50231;SDS011;36118;56.468;84.952;2023-03-29T01:42:41;54.28;;;34.80;;
50231;SDS011;36118;56.468;84.952;2023-03-29T01:48:07;52.00;;;30.25;;
50231;SDS011;36118;56.468;84.952;2023-03-29T01:53:26;50.53;;;28.48;;
50231;SDS011;36118;56.468;84.952;2023-03-29T01:58:49;46.55;;;29.38;;
50231;SDS011;36118;56.468;84.952;2023-03-29T02:08:58;54.70;;;28.98;;
50231;SDS011;36118;56.468;84.952;2023-03-29T02:14:01;38.40;;;25.73;;
50231;SDS011;36118;56.468;84.952;2023-03-29T02:19:05;38.58;;;26.80;;
50231;SDS011;36118;56.468;84.952;2023-03-29T02:24:09;36.45;;;22.38;;
50231;SDS011;36118;56.468;84.952;2023-03-29T02:29:14;37.28;;;22.35;;
50231;SDS011;36118;56.468;84.952;2023-03-29T02:34:19;34.63;;;25.02;;
50231;SDS011;36118;56.468;84.952;2023-03-29T02:39:26;33.53;;;22.70;;
50231;SDS011;36118;56.468;84.952;2023-03-29T02:44:30;37.33;;;25.45;;
50231;SDS011;36118;56.468;84.952;2023-03-29T02:49:34;35.55;;;25.27;;
50231;SDS011;36118;56.468;84.952;2023-03-29T02:54:37;37.03;;;22.35;;
50231;SDS011;36118;56.468;84.952;2023-03-29T02:59:44;34.15;;;21.55;;
50231;SDS011;36118;56.468;84.952;2023-03-29T03:04:47;32.70;;;19.67;;
50231;SDS011;36118;56.468;84.952;2023-03-29T03:09:50;34.53;;;22.38;;
50231;SDS011;36118;56.468;84.952;2023-03-29T03:14:54;32.58;;;21.17;;
50231;SDS011;36118;56.468;84.952;2023-03-29T03:19:56;33.40;;;21.50;;
50231;SDS011;36118;56.468;84.952;2023-03-29T03:25:01;30.58;;;18.30;;
50231;SDS011;36118;56.468;84.952;2023-03-29T03:30:04;30.55;;;19.88;;
50231;SDS011;36118;56.468;84.952;2023-03-29T03:35:26;43.60;;;19.33;;
50231;SDS011;36118;56.468;84.952;2023-03-29T03:40:29;48.92;;;20.13;;
50231;SDS011;36118;56.468;84.952;2023-03-29T03:45:32;31.40;;;20.52;;
50231;SDS011;36118;56.468;84.952;2023-03-29T03:50:50;34.83;;;18.80;;
50231;SDS011;36118;56.468;84.952;2023-03-29T03:55:58;32.75;;;17.73;;
50231;SDS011;36118;56.468;84.952;2023-03-29T04:01:08;29.38;;;18.00;;
50231;SDS011;36118;56.468;84.952;2023-03-29T04:06:18;26.67;;;16.10;;
50231;SDS011;36118;56.468;84.952;2023-03-29T04:11:40;26.88;;;15.95;;
50231;SDS011;36118;56.468;84.952;2023-03-29T04:16:45;26.30;;;16.38;;
50231;SDS011;36118;56.468;84.952;2023-03-29T04:22:07;26.30;;;17.08;;
50231;SDS011;36118;56.468;84.952;2023-03-29T04:27:11;26.83;;;14.70;;
50231;SDS011;36118;56.468;84.952;2023-03-29T04:32:14;23.08;;;15.45;;
50231;SDS011;36118;56.468;84.952;2023-03-29T04:37:34;22.95;;;14.48;;
50231;SDS011;36118;56.468;84.952;2023-03-29T04:42:37;27.00;;;15.43;;
50231;SDS011;36118;56.468;84.952;2023-03-29T04:47:40;22.60;;;14.25;;
50231;SDS011;36118;56.468;84.952;2023-03-29T04:52:50;21.42;;;13.50;;
50231;SDS011;36118;56.468;84.952;2023-03-29T04:57:53;21.35;;;13.60;;
50231;SDS011;36118;56.468;84.952;2023-03-29T05:03:07;21.33;;;14.45;;
50231;SDS011;36118;56.468;84.952;2023-03-29T05:08:40;18.95;;;13.18;;
50231;SDS011;36118;56.468;84.952;2023-03-29T05:13:56;18.23;;;12.50;;
50231;SDS011;36118;56.468;84.952;2023-03-29T05:19:06;15.43;;;12.18;;
50231;SDS011;36118;56.468;84.952;2023-03-29T05:24:14;18.90;;;12.18;;
50231;SDS011;36118;56.468;84.952;2023-03-29T05:29:30;17.58;;;11.27;;
50231;SDS011;36118;56.468;84.952;2023-03-29T05:34:53;15.40;;;10.93;;
50231;SDS011;36118;56.468;84.952;2023-03-29T05:39:56;18.25;;;10.68;;
50231;SDS011;36118;56.468;84.952;2023-03-29T05:45:14;21.20;;;10.32;;
50231;SDS011;36118;56.468;84.952;2023-03-29T05:50:17;16.35;;;7.90;;
50231;SDS011;36118;56.468;84.952;2023-03-29T05:55:22;13.15;;;6.72;;
50231;SDS011;36118;56.468;84.952;2023-03-29T06:00:25;12.65;;;6.25;;
50231;SDS011;36118;56.468;84.952;2023-03-29T06:10:43;8.52;;;4.13;;
50231;SDS011;36118;56.468;84.952;2023-03-29T06:16:06;7.55;;;3.30;;
50231;SDS011;36118;56.468;84.952;2023-03-29T06:21:09;7.32;;;3.60;;
50231;SDS011;36118;56.468;84.952;2023-03-29T06:26:13;8.90;;;3.40;;
50231;SDS011;36118;56.468;84.952;2023-03-29T06:31:17;12.77;;;3.65;;
50231;SDS011;36118;56.468;84.952;2023-03-29T06:36:24;9.30;;;3.47;;
50231;SDS011;36118;56.468;84.952;2023-03-29T06:41:27;7.93;;;3.53;;
50231;SDS011;36118;56.468;84.952;2023-03-29T06:46:52;15.98;;;4.20;;
50231;SDS011;36118;56.468;84.952;2023-03-29T06:51:55;11.85;;;3.70;;
50231;SDS011;36118;56.468;84.952;2023-03-29T06:57:03;10.82;;;3.58;;
50231;SDS011;36118;56.468;84.952;2023-03-29T07:02:08;15.20;;;4.35;;
50231;SDS011;36118;56.468;84.952;2023-03-29T07:07:33;10.98;;;4.38;;
50231;SDS011;36118;56.468;84.952;2023-03-29T07:13:14;10.73;;;4.30;;
50231;SDS011;36118;56.468;84.952;2023-03-29T07:18:18;9.70;;;3.65;;
50231;SDS011;36118;56.468;84.952;2023-03-29T07:23:22;14.32;;;3.05;;
50231;SDS011;36118;56.468;84.952;2023-03-29T07:28:25;12.63;;;3.78;;
50231;SDS011;36118;56.468;84.952;2023-03-29T07:33:28;11.13;;;3.00;;
50231;SDS011;36118;56.468;84.952;2023-03-29T07:38:35;7.15;;;2.72;;
50231;SDS011;36118;56.468;84.952;2023-03-29T07:43:46;7.38;;;2.47;;
50231;SDS011;36118;56.468;84.952;2023-03-29T07:48:55;8.27;;;2.78;;
50231;SDS011;36118;56.468;84.952;2023-03-29T07:53:58;7.18;;;3.05;;
50231;SDS011;36118;56.468;84.952;2023-03-29T07:59:20;8.60;;;2.65;;
50231;SDS011;36118;56.468;84.952;2023-03-29T08:04:32;5.22;;;2.78;;
50231;SDS011;36118;56.468;84.952;2023-03-29T08:09:50;8.07;;;3.03;;
50231;SDS011;36118;56.468;84.952;2023-03-29T08:14:56;6.30;;;2.55;;
50231;SDS011;36118;56.468;84.952;2023-03-29T08:20:06;8.23;;;2.10;;
50231;SDS011;36118;56.468;84.952;2023-03-29T08:25:14;9.40;;;2.83;;
50231;SDS011;36118;56.468;84.952;2023-03-29T08:30:22;7.18;;;2.40;;
50231;SDS011;36118;56.468;84.952;2023-03-29T08:35:25;7.32;;;2.05;;
50231;SDS011;36118;56.468;84.952;2023-03-29T08:40:53;7.93;;;2.30;;
50231;SDS011;36118;56.468;84.952;2023-03-29T08:51:16;6.85;;;2.80;;
50231;SDS011;36118;56.468;84.952;2023-03-29T08:56:26;5.03;;;2.72;;
50231;SDS011;36118;56.468;84.952;2023-03-29T09:01:50;6.47;;;2.00;;
50231;SDS011;36118;56.468;84.952;2023-03-29T09:17:45;7.30;;;2.88;;
50231;SDS011;36118;56.468;84.952;2023-03-29T09:23:14;7.35;;;2.28;;
50231;SDS011;36118;56.468;84.952;2023-03-29T09:28:55;7.25;;;1.95;;
50231;SDS011;36118;56.468;84.952;2023-03-29T09:39:42;10.32;;;2.30;;
50231;SDS011;36118;56.468;84.952;2023-03-29T09:44:49;6.28;;;2.00;;
50231;SDS011;36118;56.468;84.952;2023-03-29T09:50:06;6.07;;;2.20;;
50231;SDS011;36118;56.468;84.952;2023-03-29T09:55:29;6.10;;;2.10;;
50231;SDS011;36118;56.468;84.952;2023-03-29T10:01:10;4.25;;;2.00;;
50231;SDS011;36118;56.468;84.952;2023-03-29T10:06:17;7.35;;;2.40;;
50231;SDS011;36118;56.468;84.952;2023-03-29T10:11:28;7.28;;;2.05;;
50231;SDS011;36118;56.468;84.952;2023-03-29T10:16:35;6.22;;;2.30;;
50231;SDS011;36118;56.468;84.952;2023-03-29T10:21:40;6.65;;;2.47;;
50231;SDS011;36118;56.468;84.952;2023-03-29T10:26:43;10.27;;;2.83;;
50231;SDS011;36118;56.468;84.952;2023-03-29T10:31:46;6.90;;;2.80;;
50231;SDS011;36118;56.468;84.952;2023-03-29T10:37:07;8.68;;;2.95;;
50231;SDS011;36118;56.468;84.952;2023-03-29T10:42:14;7.90;;;2.72;;
50231;SDS011;36118;56.468;84.952;2023-03-29T10:47:19;8.18;;;3.10;;
50231;SDS011;36118;56.468;84.952;2023-03-29T10:52:23;5.25;;;2.70;;
50231;SDS011;36118;56.468;84.952;2023-03-29T10:57:42;10.95;;;3.50;;
50231;SDS011;36118;56.468;84.952;2023-03-29T11:08:58;7.70;;;2.67;;
50231;SDS011;36118;56.468;84.952;2023-03-29T11:19:28;7.72;;;3.05;;
50231;SDS011;36118;56.468;84.952;2023-03-29T11:45:19;14.35;;;2.30;;
50231;SDS011;36118;56.468;84.952;2023-03-29T11:50:30;4.85;;;2.40;;
50231;SDS011;36118;56.468;84.952;2023-03-29T11:55:43;11.68;;;2.55;;
50231;SDS011;36118;56.468;84.952;2023-03-29T12:00:47;7.15;;;2.97;;
50231;SDS011;36118;56.468;84.952;2023-03-29T12:05:54;6.68;;;2.60;;
50231;SDS011;36118;56.468;84.952;2023-03-29T12:21:48;9.18;;;4.93;;
50231;SDS011;36118;56.468;84.952;2023-03-29T12:37:56;10.32;;;5.50;;
50231;SDS011;36118;56.468;84.952;2023-03-29T12:43:32;7.47;;;3.42;;
50231;SDS011;36118;56.468;84.952;2023-03-29T12:48:54;6.70;;;2.80;;
50231;SDS011;36118;56.468;84.952;2023-03-29T13:14:49;6.07;;;2.30;;
50231;SDS011;36118;56.468;84.952;2023-03-29T13:35:59;6.88;;;2.95;;
50231;SDS011;36118;56.468;84.952;2023-03-29T13:41:24;5.85;;;2.75;;
50231;SDS011;36118;56.468;84.952;2023-03-29T13:46:40;4.90;;;1.85;;
50231;SDS011;36118;56.468;84.952;2023-03-29T13:51:57;6.82;;;2.55;;
50231;SDS011;36118;56.468;84.952;2023-03-29T13:57:08;5.57;;;3.20;;
50231;SDS011;36118;56.468;84.952;2023-03-29T14:02:20;7.07;;;2.72;;
50231;SDS011;36118;56.468;84.952;2023-03-29T14:07:34;10.27;;;3.33;;
50231;SDS011;36118;56.468;84.952;2023-03-29T14:17:43;5.40;;;2.53;;
50231;SDS011;36118;56.468;84.952;2023-03-29T14:22:45;8.50;;;2.67;;
50231;SDS011;36118;56.468;84.952;2023-03-29T14:27:48;3.10;;;1.40;;
50231;SDS011;36118;56.468;84.952;2023-03-29T14:32:52;2.10;;;1.00;;
50231;SDS011;36118;56.468;84.952;2023-03-29T14:37:55;2.53;;;0.90;;
50231;SDS011;36118;56.468;84.952;2023-03-29T14:42:59;2.53;;;0.95;;
50231;SDS011;36118;56.468;84.952;2023-03-29T14:48:07;2.28;;;0.90;;
50231;SDS011;36118;56.468;84.952;2023-03-29T14:53:17;0.93;;;0.30;;
50231;SDS011;36118;56.468;84.952;2023-03-29T14:58:23;2.00;;;0.70;;
50231;SDS011;36118;56.468;84.952;2023-03-29T15:03:29;19.38;;;0.57;;
50231;SDS011;36118;56.468;84.952;2023-03-29T15:08:34;1.25;;;0.43;;
50231;SDS011;36118;56.468;84.952;2023-03-29T15:13:39;1.55;;;0.63;;
50231;SDS011;36118;56.468;84.952;2023-03-29T15:18:43;1.60;;;0.73;;
50231;SDS011;36118;56.468;84.952;2023-03-29T15:24:16;1.33;;;0.57;;
50231;SDS011;36118;56.468;84.952;2023-03-29T15:29:20;1.63;;;0.57;;
50231;SDS011;36118;56.468;84.952;2023-03-29T15:34:30;1.60;;;0.80;;
50231;SDS011;36118;56.468;84.952;2023-03-29T15:39:34;1.58;;;0.60;;
50231;SDS011;36118;56.468;84.952;2023-03-29T15:44:39;1.48;;;0.73;;
50231;SDS011;36118;56.468;84.952;2023-03-29T15:49:42;2.22;;;0.90;;
50231;SDS011;36118;56.468;84.952;2023-03-29T15:54:45;3.30;;;1.30;;
50231;SDS011;36118;56.468;84.952;2023-03-29T15:59:47;2.47;;;0.90;;
50231;SDS011;36118;56.468;84.952;2023-03-29T16:04:50;2.92;;;1.30;;
50231;SDS011;36118;56.468;84.952;2023-03-29T16:09:54;3.10;;;1.20;;
50231;SDS011;36118;56.468;84.952;2023-03-29T16:14:57;2.58;;;0.57;;
50231;SDS011;36118;56.468;84.952;2023-03-29T16:20:00;0.98;;;0.38;;
50231;SDS011;36118;56.468;84.952;2023-03-29T16:25:05;2.03;;;0.77;;
50231;SDS011;36118;56.468;84.952;2023-03-29T16:30:13;1.42;;;0.52;;
50231;SDS011;36118;56.468;84.952;2023-03-29T16:35:23;5.45;;;1.92;;
50231;SDS011;36118;56.468;84.952;2023-03-29T16:40:28;6.47;;;1.52;;
50231;SDS011;36118;56.468;84.952;2023-03-29T16:45:30;1.95;;;0.80;;
50231;SDS011;36118;56.468;84.952;2023-03-29T16:50:33;1.63;;;0.68;;
50231;SDS011;36118;56.468;84.952;2023-03-29T16:55:36;2.05;;;0.80;;
50231;SDS011;36118;56.468;84.952;2023-03-29T17:00:39;2.05;;;0.90;;
50231;SDS011;36118;56.468;84.952;2023-03-29T17:06:00;2.20;;;0.90;;
50231;SDS011;36118;56.468;84.952;2023-03-29T17:11:04;1.77;;;0.60;;
50231;SDS011;36118;56.468;84.952;2023-03-29T17:16:09;1.48;;;0.68;;
50231;SDS011;36118;56.468;84.952;2023-03-29T17:21:12;1.75;;;0.70;;
50231;SDS011;36118;56.468;84.952;2023-03-29T17:26:15;2.15;;;0.95;;
50231;SDS011;36118;56.468;84.952;2023-03-29T17:31:18;2.65;;;1.00;;
50231;SDS011;36118;56.468;84.952;2023-03-29T17:36:21;2.03;;;0.85;;
50231;SDS011;36118;56.468;84.952;2023-03-29T17:41:26;1.30;;;0.57;;
50231;SDS011;36118;56.468;84.952;2023-03-29T17:46:31;2.17;;;1.00;;
50231;SDS011;36118;56.468;84.952;2023-03-29T17:51:35;2.28;;;0.93;;
50231;SDS011;36118;56.468;84.952;2023-03-29T17:56:38;4.40;;;1.42;;
50231;SDS011;36118;56.468;84.952;2023-03-29T18:01:41;1.52;;;0.63;;
50231;SDS011;36118;56.468;84.952;2023-03-29T18:06:44;1.63;;;0.68;;
50231;SDS011;36118;56.468;84.952;2023-03-29T18:11:47;1.65;;;0.60;;
50231;SDS011;36118;56.468;84.952;2023-03-29T18:16:49;2.72;;;1.00;;
50231;SDS011;36118;56.468;84.952;2023-03-29T18:21:52;1.10;;;0.57;;
50231;SDS011;36118;56.468;84.952;2023-03-29T18:26:55;2.65;;;0.95;;
50231;SDS011;36118;56.468;84.952;2023-03-29T18:31:59;1.48;;;0.73;;
50231;SDS011;36118;56.468;84.952;2023-03-29T18:37:04;3.20;;;1.00;;
50231;SDS011;36118;56.468;84.952;2023-03-29T18:42:07;2.65;;;1.23;;
50231;SDS011;36118;56.468;84.952;2023-03-29T18:47:13;3.72;;;1.40;;
50231;SDS011;36118;56.468;84.952;2023-03-29T18:52:15;1.80;;;0.80;;
50231;SDS011;36118;56.468;84.952;2023-03-29T18:57:18;3.85;;;1.20;;
50231;SDS011;36118;56.468;84.952;2023-03-29T19:02:21;1.67;;;0.55;;
50231;SDS011;36118;56.468;84.952;2023-03-29T19:07:24;5.05;;;1.42;;
50231;SDS011;36118;56.468;84.952;2023-03-29T19:12:27;2.38;;;0.93;;
50231;SDS011;36118;56.468;84.952;2023-03-29T19:17:30;3.13;;;0.90;;
50231;SDS011;36118;56.468;84.952;2023-03-29T19:22:33;2.88;;;0.88;;
50231;SDS011;36118;56.468;84.952;2023-03-29T19:27:36;2.83;;;0.95;;
50231;SDS011;36118;56.468;84.952;2023-03-29T19:32:38;2.85;;;1.50;;
50231;SDS011;36118;56.468;84.952;2023-03-29T19:37:41;3.58;;;1.42;;
50231;SDS011;36118;56.468;84.952;2023-03-29T19:42:44;3.58;;;1.13;;
50231;SDS011;36118;56.468;84.952;2023-03-29T19:47:55;3.35;;;1.30;;
50231;SDS011;36118;56.468;84.952;2023-03-29T19:52:59;2.63;;;1.27;;
50231;SDS011;36118;56.468;84.952;2023-03-29T19:58:02;1.52;;;0.65;;
50231;SDS011;36118;56.468;84.952;2023-03-29T20:03:05;3.20;;;1.07;;
50231;SDS011;36118;56.468;84.952;2023-03-29T20:08:17;4.15;;;1.00;;
50231;SDS011;36118;56.468;84.952;2023-03-29T20:13:20;2.97;;;0.65;;
50231;SDS011;36118;56.468;84.952;2023-03-29T20:18:39;2.58;;;1.20;;
50231;SDS011;36118;56.468;84.952;2023-03-29T20:23:42;2.10;;;0.85;;
50231;SDS011;36118;56.468;84.952;2023-03-29T20:28:45;3.92;;;1.75;;
50231;SDS011;36118;56.468;84.952;2023-03-29T20:33:48;2.65;;;0.80;;
50231;SDS011;36118;56.468;84.952;2023-03-29T20:38:50;2.33;;;1.02;;
50231;SDS011;36118;56.468;84.952;2023-03-29T20:43:56;5.32;;;2.10;;
50231;SDS011;36118;56.468;84.952;2023-03-29T20:49:00;3.03;;;1.08;;
50231;SDS011;36118;56.468;84.952;2023-03-29T20:54:04;1.40;;;0.65;;
50231;SDS011;36118;56.468;84.952;2023-03-29T20:59:08;3.30;;;0.77;;
50231;SDS011;36118;56.468;84.952;2023-03-29T21:04:14;3.00;;;1.27;;
50231;SDS011;36118;56.468;84.952;2023-03-29T21:09:17;4.10;;;1.10;;
50231;SDS011;36118;56.468;84.952;2023-03-29T21:14:22;1.63;;;1.02;;
50231;SDS011;36118;56.468;84.952;2023-03-29T21:19:25;1.83;;;0.90;;
50231;SDS011;36118;56.468;84.952;2023-03-29T21:24:27;2.92;;;0.68;;
50231;SDS011;36118;56.468;84.952;2023-03-29T21:29:30;2.80;;;0.90;;
50231;SDS011;36118;56.468;84.952;2023-03-29T21:34:33;4.70;;;1.08;;
50231;SDS011;36118;56.468;84.952;2023-03-29T21:39:36;3.35;;;1.40;;
50231;SDS011;36118;56.468;84.952;2023-03-29T21:44:39;2.40;;;1.05;;
50231;SDS011;36118;56.468;84.952;2023-03-29T21:49:41;0.65;;;0.32;;
50231;SDS011;36118;56.468;84.952;2023-03-29T21:54:44;2.10;;;0.88;;
50231;SDS011;36118;56.468;84.952;2023-03-29T21:59:47;2.28;;;0.85;;
50231;SDS011;36118;56.468;84.952;2023-03-29T22:04:50;7.78;;;0.90;;
50231;SDS011;36118;56.468;84.952;2023-03-29T22:09:53;1.67;;;0.75;;
50231;SDS011;36118;56.468;84.952;2023-03-29T22:14:55;3.67;;;0.50;;
50231;SDS011;36118;56.468;84.952;2023-03-29T22:19:58;1.95;;;0.90;;
50231;SDS011;36118;56.468;84.952;2023-03-29T22:30:06;3.17;;;1.17;;
50231;SDS011;36118;56.468;84.952;2023-03-29T22:35:09;2.50;;;1.25;;
50231;SDS011;36118;56.468;84.952;2023-03-29T22:40:12;2.28;;;0.82;;
50231;SDS011;36118;56.468;84.952;2023-03-29T22:45:15;4.75;;;1.50;;
50231;SDS011;36118;56.468;84.952;2023-03-29T22:50:18;2.33;;;1.02;;
50231;SDS011;36118;56.468;84.952;2023-03-29T22:55:20;3.35;;;1.27;;
50231;SDS011;36118;56.468;84.952;2023-03-29T23:00:23;2.92;;;1.42;;
50231;SDS011;36118;56.468;84.952;2023-03-29T23:05:26;3.72;;;1.60;;
50231;SDS011;36118;56.468;84.952;2023-03-29T23:10:29;3.00;;;0.93;;
50231;SDS011;36118;56.468;84.952;2023-03-29T23:15:32;2.88;;;1.00;;
50231;SDS011;36118;56.468;84.952;2023-03-29T23:20:36;1.87;;;0.83;;
50231;SDS011;36118;56.468;84.952;2023-03-29T23:25:38;4.72;;;2.00;;
50231;SDS011;36118;56.468;84.952;2023-03-29T23:30:41;2.67;;;1.38;;
50231;SDS011;36118;56.468;84.952;2023-03-29T23:35:44;6.43;;;1.83;;
50231;SDS011;36118;56.468;84.952;2023-03-29T23:40:51;5.28;;;1.55;;
50231;SDS011;36118;56.468;84.952;2023-03-29T23:45:59;3.13;;;1.25;;
50231;SDS011;36118;56.468;84.952;2023-03-29T23:51:03;4.55;;;1.27;;
50231;SDS011;36118;56.468;84.952;2023-03-29T23:56:07;4.93;;;1.42;;
